Dades meteomassalio
Diari Summary for Febrer 9, 2018 Units:  Metric    English   Both
« Previous Day
Next Day »
Diari Semanal Mensual Anual Personalitzat
  Maxima: Minima: Mijana:
Temperatura: -17.8 °C -20.9 °C -16.5 °C
Rosada: -17.8 °C -21.6 °C -18.8 °C
Humitat: Humidity % 47 % 76 %
Velocitat del vent: 0 km/h 0 km/h 23.2 km/h
Racha vent: 0 km/h - -
Vent:- - WNW
Pressio: 0 hPa 34544 hPa -
Pluja: 12.7 mm    
Historical Graphs
 
 
Tabular Data for Febrer 9, 2018
Time Temperature Dew Point Pressure Wind Wind Speed Wind Gust Humidity Rainfall Rate (Hourly) solar Conditions
-17.8 °C -17.8 °C 0 hPa Calm     Humidity % 0 mm SolarRadiationWatts/m^2 W/m2 Conditions
00:00 -19 °C -19.8 °C 34645.6 hPa West 12.9 km/h 12.9 km/h 90 % 0 mm 0.0 W/m2 CLR
00:05 -19 °C -19.8 °C 34645.6 hPa West 10.3 km/h 10.3 km/h 90 % 0 mm 0.0 W/m2 RA
00:10 -19 °C -19.8 °C 34645.6 hPa West 11.9 km/h 11.9 km/h 90 % 0 mm 0.0 W/m2 CLR
00:15 -19.3 °C -20.1 °C 34645.6 hPa WNW 15 km/h 15 km/h 90 % 0 mm 0.0 W/m2 CLR
00:20 -19.3 °C -20.1 °C 34645.6 hPa WNW 17.9 km/h 17.9 km/h 90 % 0 mm 0.0 W/m2 CLR
00:25 -19.3 °C -20.2 °C 34645.6 hPa WNW 18.2 km/h 18.2 km/h 89 % 0 mm 0.0 W/m2 CLR
00:30 -19.3 °C -20.2 °C 34645.6 hPa WNW 20.9 km/h 20.9 km/h 89 % 0 mm 0.0 W/m2 CLR
00:35 -19.3 °C -20.2 °C 34635.4 hPa WNW 20.9 km/h 20.9 km/h 89 % 0 mm 0.0 W/m2 CLR
00:40 -19.3 °C -20.2 °C 34635.4 hPa West 15 km/h 15 km/h 89 % 0 mm 0.0 W/m2 CLR
00:45 -19.3 °C -20.2 °C 34635.4 hPa West 20.9 km/h 20.9 km/h 89 % 0 mm 0.0 W/m2 CLR
00:50 -19.3 °C -20.2 °C 34635.4 hPa West 15.6 km/h 15.6 km/h 89 % 0 mm 0.0 W/m2 CLR
00:55 -19.3 °C -20.2 °C 34635.4 hPa West 15 km/h 15 km/h 89 % 0 mm 0.0 W/m2 CLR
01:00 -19.3 °C -20.2 °C 34635.4 hPa West 15 km/h 15 km/h 89 % 0 mm 0.0 W/m2 CLR
01:05 -19.3 °C -20.2 °C 34635.4 hPa West 17.9 km/h 17.9 km/h 89 % 0 mm 0.0 W/m2 CLR
01:10 -19.3 °C -20.2 °C 34635.4 hPa West 23.8 km/h 23.8 km/h 89 % 0 mm 0.0 W/m2 CLR
01:15 -19.3 °C -20.2 °C 34635.4 hPa West 23.8 km/h 23.8 km/h 89 % 0 mm 0.0 W/m2 CLR
01:20 -19.3 °C -20.2 °C 34635.4 hPa West 23.3 km/h 23.3 km/h 89 % 0 mm 0.0 W/m2 CLR
01:25 -19.3 °C -20.2 °C 34635.4 hPa West 23.8 km/h 23.8 km/h 89 % 0 mm 0.0 W/m2 CLR
01:30 -19.3 °C -20.2 °C 34635.4 hPa West 17.9 km/h 17.9 km/h 89 % 0 mm 0.0 W/m2 CLR
01:35 -19.3 °C -20.3 °C 34645.6 hPa West 17.9 km/h 17.9 km/h 88 % 0 mm 0.0 W/m2 CLR
01:40 -19.3 °C -20.3 °C 34645.6 hPa West 20.9 km/h 20.9 km/h 88 % 0 mm 0.0 W/m2 CLR
01:45 -19.3 °C -20.3 °C 34645.6 hPa West 20.9 km/h 20.9 km/h 88 % 0 mm 0.0 W/m2 CLR
01:50 -19.3 °C -20.3 °C 34635.4 hPa West 20.9 km/h 20.9 km/h 88 % 0 mm 0.0 W/m2 CLR
01:55 -19.6 °C -20.6 °C 34635.4 hPa West 17.9 km/h 17.9 km/h 88 % 0 mm 0.0 W/m2 CLR
02:00 -19.6 °C -20.6 °C 34635.4 hPa West 20.9 km/h 20.9 km/h 88 % 0 mm 0.0 W/m2 CLR
02:05 -19.6 °C -20.6 °C 34635.4 hPa WSW 20.8 km/h 20.8 km/h 88 % 0 mm 0.0 W/m2 CLR
02:10 -19.6 °C -20.6 °C 34635.4 hPa West 18.2 km/h 18.2 km/h 88 % 0 mm 0.0 W/m2 CLR
02:15 -19.3 °C -20.3 °C 34635.4 hPa West 29.8 km/h 29.8 km/h 88 % 0 mm 0.0 W/m2 CLR
02:20 -19.6 °C -20.6 °C 34635.4 hPa West 23.8 km/h 23.8 km/h 88 % 0 mm 0.0 W/m2 CLR
02:25 -19.3 °C -20.3 °C 34635.4 hPa West 20.9 km/h 20.9 km/h 88 % 0 mm 0.0 W/m2 CLR
02:30 -19.3 °C -20.3 °C 34645.6 hPa West 17.9 km/h 17.9 km/h 88 % 0 mm 0.0 W/m2 CLR
02:35 -19.3 °C -20.3 °C 34645.6 hPa West 15.6 km/h 15.6 km/h 88 % 0 mm 0.0 W/m2 CLR
02:40 -19.3 °C -20.3 °C 34645.6 hPa West 15 km/h 15 km/h 88 % 0 mm 0.0 W/m2 CLR
02:45 -19.3 °C -20.3 °C 34645.6 hPa WSW 10.3 km/h 10.3 km/h 88 % 0 mm 0.0 W/m2 CLR
02:50 -19.6 °C -20.6 °C 34645.6 hPa WSW 15 km/h 15 km/h 88 % 0 mm 0.0 W/m2 CLR
02:55 -19.6 °C -20.6 °C 34645.6 hPa West 18.2 km/h 18.2 km/h 88 % 0 mm 0.0 W/m2 CLR
03:00 -19.6 °C -20.6 °C 34645.6 hPa WSW 11.9 km/h 11.9 km/h 88 % 0 mm 0.0 W/m2 CLR
03:05 -19.6 °C -20.6 °C 34645.6 hPa West 18.2 km/h 18.2 km/h 88 % 0 mm 0.0 W/m2 CLR
03:10 -19.6 °C -20.6 °C 34635.4 hPa West 12.9 km/h 12.9 km/h 88 % 0 mm 0.0 W/m2 CLR
03:15 -19.6 °C -20.6 °C 34635.4 hPa Calm     88 % 0 mm 0.0 W/m2 CLR
03:20 -19.6 °C -20.6 °C 34635.4 hPa Calm     88 % 0 mm 0.0 W/m2 CLR
03:25 -19.9 °C -20.9 °C 34635.4 hPa Calm     88 % 0 mm 0.0 W/m2 CLR
03:30 -19.9 °C -20.9 °C 34635.4 hPa West 11.9 km/h 11.9 km/h 88 % 0 mm 0.0 W/m2 CLR
03:35 -19.9 °C -20.8 °C 34635.4 hPa West 15 km/h 15 km/h 89 % 0 mm 0.0 W/m2 CLR
03:40 -19.9 °C -20.8 °C 34635.4 hPa WNW 20.9 km/h 20.9 km/h 89 % 0 mm 0.0 W/m2 CLR
03:45 -20.2 °C -21.2 °C 34635.4 hPa West 15 km/h 15 km/h 88 % 0 mm 0.0 W/m2 CLR
03:50 -20.2 °C -21.2 °C 34635.4 hPa West 15 km/h 15 km/h 88 % 0 mm 0.0 W/m2 CLR
03:55 -20.2 °C -21.3 °C 34625.2 hPa WSW 9 km/h 9 km/h 87 % 0 mm 0.0 W/m2 CLR
04:00 -20.2 °C -21.2 °C 34625.2 hPa WSW 12.9 km/h 12.9 km/h 88 % 0 mm 0.0 W/m2 CLR
04:05 -20.2 °C -21.2 °C 34625.2 hPa WSW 9 km/h 9 km/h 88 % 0 mm 0.0 W/m2 CLR
04:10 -20.2 °C -21.2 °C 34625.2 hPa West 11.9 km/h 11.9 km/h 88 % 0 mm 0.0 W/m2 CLR
04:15 -20.2 °C -21.2 °C 34625.2 hPa WNW 11.9 km/h 11.9 km/h 88 % 0 mm 0.0 W/m2 CLR
04:20 -20.2 °C -21.1 °C 34625.2 hPa WNW 18.2 km/h 18.2 km/h 89 % 0 mm 0.0 W/m2 CLR
04:25 -20.2 °C -21.2 °C 34625.2 hPa West 9 km/h 9 km/h 88 % 0 mm 0.0 W/m2 CLR
04:30 -20.2 °C -21.3 °C 34625.2 hPa Calm     87 % 0 mm 0.0 W/m2 CLR
04:35 -20.2 °C -21.3 °C 34625.2 hPa Calm     87 % 0 mm 0.0 W/m2 CLR
04:40 -20.2 °C -21.2 °C 34625.2 hPa Calm     88 % 0 mm 0.0 W/m2 CLR
04:45 -20.2 °C -21.2 °C 34625.2 hPa Calm     88 % 0 mm 0.0 W/m2 CLR
04:50 -20.2 °C -21.1 °C 34625.2 hPa Calm     89 % 0 mm 0.0 W/m2 CLR
04:55 -20.2 °C -21.1 °C 34625.2 hPa Calm     89 % 0 mm 0.0 W/m2 CLR
05:00 -20.2 °C -21.1 °C 34625.2 hPa Calm     89 % 0 mm 0.0 W/m2 CLR
05:05 -20.2 °C -21.1 °C 34625.2 hPa Calm     89 % 0 mm 0.0 W/m2 CLR
05:10 -20.6 °C -21.4 °C 34625.2 hPa Calm     89 % 0 mm 0.0 W/m2 CLR
05:15 -20.6 °C -21.3 °C 34625.2 hPa Calm     90 % 0 mm 0.0 W/m2 CLR
05:20 -20.6 °C -21.3 °C 34625.2 hPa Calm     90 % 0 mm 0.0 W/m2 CLR
05:25 -20.6 °C -21.3 °C 34625.2 hPa Calm     90 % 0 mm 0.0 W/m2 CLR
05:30 -20.6 °C -21.3 °C 34625.2 hPa Calm     90 % 0 mm 0.0 W/m2 CLR
05:35 -20.6 °C -21.3 °C 34625.2 hPa Calm     90 % 0 mm 0.0 W/m2 CLR
05:40 -20.6 °C -21.3 °C 34625.2 hPa Calm     90 % 0 mm 0.0 W/m2 CLR
05:45 -20.6 °C -21.3 °C 34635.4 hPa Calm     90 % 0 mm 0.0 W/m2 CLR
05:50 -20.6 °C -21.3 °C 34635.4 hPa Calm     90 % 0 mm 0.0 W/m2 CLR
05:55 -20.6 °C -21.3 °C 34625.2 hPa Calm     90 % 0 mm 0.0 W/m2 CLR
06:00 -20.6 °C -21.3 °C 34635.4 hPa Calm     90 % 0 mm 0.0 W/m2 CLR
06:05 -20.6 °C -21.3 °C 34635.4 hPa Calm     90 % 0 mm 0.0 W/m2 CLR
06:10 -20.6 °C -21.3 °C 34635.4 hPa Calm     90 % 0 mm 0.0 W/m2 CLR
06:15 -20.6 °C -21.3 °C 34635.4 hPa Calm     90 % 0 mm 0.0 W/m2 CLR
06:20 -20.6 °C -21.3 °C 34635.4 hPa Calm     90 % 0 mm 0.0 W/m2 CLR
06:26 -20.6 °C -21.3 °C 34635.4 hPa Calm     90 % 0 mm 0.0 W/m2 CLR
06:31 -20.6 °C -21.3 °C 34635.4 hPa Calm     90 % 0 mm 0.0 W/m2 CLR
06:36 -20.6 °C -21.3 °C 34635.4 hPa Calm     90 % 0 mm 0.0 W/m2 CLR
06:41 -20.6 °C -21.2 °C 34625.2 hPa Calm     91 % 0 mm 0.0 W/m2 CLR
06:46 -20.6 °C -21.2 °C 34635.4 hPa Calm     91 % 0 mm 0.0 W/m2 CLR
06:51 -20.6 °C -21.2 °C 34635.4 hPa Calm     91 % 0 mm 0.0 W/m2 CLR
06:56 -20.6 °C -21.2 °C 34635.4 hPa Calm     91 % 0 mm 0.0 W/m2 CLR
07:01 -20.6 °C -21.2 °C 34635.4 hPa Calm     91 % 0 mm 0.0 W/m2 CLR
07:06 -20.6 °C -21.2 °C 34635.4 hPa Calm     91 % 0 mm 0.0 W/m2 CLR
07:11 -20.9 °C -21.6 °C 34635.4 hPa Calm     91 % 0 mm 0.0 W/m2 CLR
07:16 -20.6 °C -21.2 °C 34635.4 hPa Calm     91 % 0 mm 0.0 W/m2 CLR
07:21 -20.6 °C -21.2 °C 34635.4 hPa Calm     91 % 0 mm 0.0 W/m2 CLR
07:26 -20.6 °C -21.2 °C 34635.4 hPa Calm     91 % 0 mm 0.0 W/m2 CLR
07:31 -20.9 °C -21.6 °C 34635.4 hPa Calm     91 % 0 mm 0.0 W/m2 CLR
07:36 -20.9 °C -21.6 °C 34635.4 hPa Calm     91 % 0 mm 0.0 W/m2 CLR
07:41 -20.6 °C -21.2 °C 34625.2 hPa Calm     91 % 0 mm 0.0 W/m2 CLR
07:46 -20.6 °C -21.2 °C 34635.4 hPa Calm     91 % 0 mm 0.0 W/m2 CLR
07:51 -20.6 °C -21.2 °C 34635.4 hPa Calm     91 % 0 mm 0.0 W/m2 CLR
07:56 -20.6 °C -21.2 °C 34635.4 hPa Calm     91 % 0 mm 0.0 W/m2 CLR
08:01 -20.6 °C -21.2 °C 34635.4 hPa Calm     91 % 0 mm 0.0 W/m2 OVC
08:06 -20.6 °C -21.2 °C 34635.4 hPa Calm     91 % 0 mm 7.0 W/m2 BKN
08:11 -20.6 °C -21.2 °C 34635.4 hPa Calm     91 % 0 mm 9.0 W/m2 BKN
08:16 -20.6 °C -21.2 °C 34635.4 hPa Calm     92 % 0 mm 11.0 W/m2 BKN
08:21 -20.6 °C -21.2 °C 34635.4 hPa Calm     92 % 0 mm 14.0 W/m2 BKN
08:26 -20.6 °C -21.2 °C 34635.4 hPa Calm     92 % 0 mm 18.0 W/m2 BKN
08:31 -20.6 °C -21.2 °C 34635.4 hPa Calm     92 % 0 mm 19.0 W/m2 BKN
08:36 -20.6 °C -21.2 °C 34635.4 hPa Calm     92 % 0 mm 25.0 W/m2 BKN
08:41 -20.6 °C -21.2 °C 34635.4 hPa Calm     92 % 0 mm 37.0 W/m2 BKN
08:46 -20.6 °C -21.2 °C 34635.4 hPa Calm     92 % 0 mm 69.0 W/m2 FEW
08:51 -20.2 °C -20.9 °C 34635.4 hPa Calm     91 % 0 mm 86.0 W/m2 CLR
08:56 -20.2 °C -20.9 °C 34635.4 hPa Calm     92 % 0 mm 107.0 W/m2 CLR
09:01 -19.9 °C -20.7 °C 34635.4 hPa Calm     91 % 0 mm 127.0 W/m2 CLR
09:06 -19.9 °C -20.7 °C 34635.4 hPa Calm     91 % 0 mm 141.0 W/m2 CLR
09:11 -19.9 °C -20.7 °C 34635.4 hPa Calm     91 % 0 mm 144.0 W/m2 CLR
09:16 -19.6 °C -20.4 °C 34635.4 hPa Calm     90 % 0 mm 127.0 W/m2 CLR
09:21 -19.6 °C -20.4 °C 34635.4 hPa Calm     90 % 0 mm 179.0 W/m2 CLR
09:26 -19.6 °C -20.4 °C 34635.4 hPa Calm     90 % 0 mm 195.0 W/m2 CLR
09:31 -19.3 °C -20.1 °C 34635.4 hPa Calm     90 % 0 mm 95.0 W/m2 CLR
09:36 -19.3 °C -20.2 °C 34635.4 hPa Calm     89 % 7.62 mm 227.0 W/m2 RA
09:41 -19 °C -19.9 °C 34635.4 hPa Calm     89 % 7.62 mm 244.0 W/m2 CLR
09:46 -19 °C -19.9 °C 34635.4 hPa Calm     88 % 7.62 mm 230.0 W/m2 CLR
09:51 -18.7 °C -19.7 °C 34635.4 hPa Calm     88 % 7.62 mm 279.0 W/m2 CLR
09:56 -18.7 °C -19.7 °C 34635.4 hPa Calm     88 % 7.62 mm 292.0 W/m2 CLR
10:01 -18.4 °C -19.3 °C 34635.4 hPa Calm     88 % 7.62 mm 304.0 W/m2 CLR
10:06 -18.1 °C -19.1 °C 34635.4 hPa Calm     88 % 7.62 mm 322.0 W/m2 CLR
10:11 -17.8 °C -18.8 °C 34635.4 hPa Calm     87 % 7.62 mm 334.0 W/m2 CLR
10:16 -17.8 °C -18.9 °C 34635.4 hPa Calm     86 % 7.62 mm 341.0 W/m2 CLR
10:21 -17.4 °C -18.8 °C 34635.4 hPa Calm     84 % 12.7 mm 360.0 W/m2 RA
10:26 -16.8 °C -18.2 °C 34645.6 hPa Calm     84 % 12.7 mm 367.0 W/m2 CLR
10:31 -16.6 °C -18 °C 34645.6 hPa Calm     83 % 12.7 mm 243.0 W/m2 CLR
10:36 -16.6 °C -18.6 °C 34645.6 hPa NW 32.8 km/h 32.8 km/h 77 % 7.62 mm 216.0 W/m2 CLR
10:41 -16.2 °C -19 °C 34645.6 hPa WNW 20.9 km/h 20.9 km/h 70 % 7.62 mm 281.0 W/m2 CLR
10:43 -16.2 °C -19 °C 34645.6 hPa NW 9 km/h 9 km/h 70 % 7.62 mm 406.0 W/m2 CLR
10:48 -15.9 °C -18.9 °C 34645.6 hPa WNW 9 km/h 9 km/h 68 % 7.62 mm 432.0 W/m2 CLR
10:54 -15.6 °C -18.8 °C 34645.6 hPa NNW 32.8 km/h 32.8 km/h 66 % 7.62 mm 343.0 W/m2 CLR
10:59 -15.3 °C -18.4 °C 34645.6 hPa NNW 9 km/h 9 km/h 67 % 7.62 mm 396.0 W/m2 CLR
11:04 -15.3 °C -18.5 °C 34645.6 hPa NNW 33.6 km/h 33.6 km/h 66 % 7.62 mm 415.0 W/m2 CLR
11:09 -15.3 °C -18.4 °C 34645.6 hPa WNW 10.3 km/h 10.3 km/h 67 % 7.62 mm 429.0 W/m2 CLR
11:14 -15 °C -18.1 °C 34645.6 hPa NNW 7.7 km/h 7.7 km/h 67 % 7.62 mm 399.0 W/m2 CLR
11:19 -15 °C -18.5 °C 34645.6 hPa WNW 26.9 km/h 26.9 km/h 64 % 0 mm 459.0 W/m2 CLR
11:24 -15 °C -18.2 °C 34645.6 hPa NW 29.8 km/h 29.8 km/h 66 % 0 mm 466.0 W/m2 CLR
11:29 -15 °C -18.4 °C 34645.6 hPa West 6 km/h 6 km/h 65 % 0 mm 506.0 W/m2 CLR
11:34 -14.7 °C -18.3 °C 34645.6 hPa WNW 9 km/h 9 km/h 63 % 0 mm 520.0 W/m2 CLR
11:39 -14.7 °C -18.2 °C 34645.6 hPa West 9 km/h 9 km/h 64 % 0 mm 520.0 W/m2 CLR
11:44 -14.7 °C -18.1 °C 34645.6 hPa NW 17.9 km/h 17.9 km/h 65 % 0 mm 526.0 W/m2 CLR
11:49 -14.7 °C -18.4 °C 34659.1 hPa North 28.5 km/h 28.5 km/h 62 % 0 mm 533.0 W/m2 CLR
11:54 -14.4 °C -17.9 °C 34645.6 hPa WNW 29.8 km/h 29.8 km/h 64 % 0 mm 513.0 W/m2 CLR
11:59 -14.4 °C -17.9 °C 34645.6 hPa NNW 29.8 km/h 29.8 km/h 64 % 0 mm 577.0 W/m2 CLR
12:04 -14.1 °C -17.6 °C 34645.6 hPa WNW 32.8 km/h 32.8 km/h 64 % 0 mm 541.0 W/m2 CLR
12:09 -14.1 °C -17.9 °C 34645.6 hPa WNW 29.8 km/h 29.8 km/h 61 % 0 mm 527.0 W/m2 CLR
12:14 -14.1 °C -17.8 °C 34659.1 hPa WNW 9 km/h 9 km/h 62 % 0 mm 599.0 W/m2 CLR
12:19 -14.1 °C -18.1 °C 34645.6 hPa NW 23.8 km/h 23.8 km/h 60 % 0 mm 617.0 W/m2 CLR
12:24 -13.8 °C -17.6 °C 34645.6 hPa NNW 26.9 km/h 26.9 km/h 62 % 0 mm 640.0 W/m2 CLR
12:29 -13.8 °C -17.9 °C 34645.6 hPa WNW 35.7 km/h 35.7 km/h 59 % 0 mm 541.0 W/m2 CLR
12:34 -13.8 °C -17.7 °C 34645.6 hPa North 29.8 km/h 29.8 km/h 61 % 0 mm 431.0 W/m2 CLR
12:39 -13.8 °C -17.7 °C 34645.6 hPa North 29.8 km/h 29.8 km/h 61 % 0 mm 387.0 W/m2 CLR
12:44 -13.8 °C -17.7 °C 34645.6 hPa NW 32.8 km/h 32.8 km/h 61 % 0 mm 573.0 W/m2 CLR
12:49 -13.4 °C -17.5 °C 34635.4 hPa NNW 20.9 km/h 20.9 km/h 60 % 0 mm 548.0 W/m2 CLR
12:54 -13.4 °C -17.4 °C 34645.6 hPa NNW 35.7 km/h 35.7 km/h 61 % 0 mm 554.0 W/m2 CLR
12:59 -13.2 °C -17.1 °C 34645.6 hPa NNW 29.8 km/h 29.8 km/h 61 % 0 mm 610.0 W/m2 CLR
13:04 -13.2 °C -17.3 °C 34635.4 hPa North 20.9 km/h 20.9 km/h 59 % 0 mm 515.0 W/m2 CLR
13:09 -13.2 °C -17.3 °C 34635.4 hPa North 26.9 km/h 26.9 km/h 59 % 0 mm 533.0 W/m2 CLR
13:14 -13.2 °C -17.2 °C 34625.2 hPa WNW 20.9 km/h 20.9 km/h 60 % 0 mm 512.0 W/m2 CLR
13:19 -13.2 °C -17.7 °C 34625.2 hPa WNW 29.8 km/h 29.8 km/h 56 % 0 mm 552.0 W/m2 CLR
13:25 -13.2 °C -17.4 °C 34611.7 hPa NNW 23.8 km/h 24.8 km/h 58 % 0 mm 548.0 W/m2 CLR
13:30 -13.2 °C -17.7 °C 34611.7 hPa NNW 33.6 km/h 33.6 km/h 56 % 0 mm 480.0 W/m2 CLR
13:35 -13.2 °C -17.4 °C 34611.7 hPa WNW 29.8 km/h 29.8 km/h 58 % 0 mm 501.0 W/m2 CLR
13:40 -13.2 °C -17.4 °C 34601.5 hPa NW 23.3 km/h 23.3 km/h 58 % 0 mm 490.0 W/m2 CLR
13:45 -13.2 °C -17.6 °C 34601.5 hPa NW 29.8 km/h 29.8 km/h 57 % 0 mm 566.0 W/m2 CLR
13:50 -12.8 °C -17.4 °C 34601.5 hPa NW 20.9 km/h 20.9 km/h 56 % 0 mm 571.0 W/m2 CLR
13:55 -12.8 °C -17.7 °C 34601.5 hPa NNW 23.8 km/h 23.8 km/h 54 % 0 mm 545.0 W/m2 CLR
14:00 -12.8 °C -18 °C 34591.4 hPa NW 35.7 km/h 35.7 km/h 52 % 0 mm 352.0 W/m2 CLR
14:05 -13.2 °C -17.6 °C 34591.4 hPa NW 18.2 km/h 19.5 km/h 57 % 0 mm 399.0 W/m2 CLR
14:10 -13.2 °C -18.4 °C 34577.8 hPa WNW 20.9 km/h 20.9 km/h 51 % 0 mm 316.0 W/m2 CLR
14:15 -13.2 °C -18.3 °C 34577.8 hPa NW 23.8 km/h 23.8 km/h 52 % 0 mm 345.0 W/m2 CLR
14:20 -13.2 °C -18 °C 34577.8 hPa NNW 29.8 km/h 29.8 km/h 54 % 0 mm 399.0 W/m2 CLR
14:26 -13.2 °C -17.9 °C 34577.8 hPa NW 29.8 km/h 29.8 km/h 55 % 0 mm 364.0 W/m2 CLR
14:31 -12.8 °C -18.2 °C 34577.8 hPa NW 20.8 km/h 20.8 km/h 51 % 0 mm 508.0 W/m2 CLR
14:36 -12.6 °C -17.3 °C 34567.7 hPa West 3.1 km/h 3.1 km/h 55 % 0 mm 559.0 W/m2 CLR
14:41 -12.6 °C -17.3 °C 34567.7 hPa West 11.9 km/h 11.9 km/h 55 % 0 mm 471.0 W/m2 CLR
14:46 -12.6 °C -17.7 °C 34567.7 hPa NW 6 km/h 6 km/h 52 % 0 mm 566.0 W/m2 CLR
14:51 -12.6 °C -17.9 °C 34567.7 hPa NW 23.8 km/h 23.8 km/h 51 % 0 mm 552.0 W/m2 CLR
14:56 -12.2 °C -17.6 °C 34567.7 hPa NNW 41.7 km/h 41.7 km/h 51 % 0 mm 531.0 W/m2 CLR
15:01 -12.2 °C -17.4 °C 34567.7 hPa North 29.8 km/h 29.8 km/h 52 % 0 mm 513.0 W/m2 CLR
15:06 -12.2 °C -17.6 °C 34554.1 hPa North 29.8 km/h 29.8 km/h 51 % 0 mm 496.0 W/m2 CLR
15:11 -12.2 °C -17.6 °C 34554.1 hPa WNW 29.8 km/h 29.8 km/h 51 % 0 mm 489.0 W/m2 CLR
15:16 -12.2 °C -17.6 °C 34554.1 hPa NNW 26.9 km/h 26.9 km/h 51 % 0 mm 478.0 W/m2 CLR
15:21 -12.2 °C -18.2 °C 34554.1 hPa NW 32.8 km/h 32.8 km/h 47 % 0 mm 471.0 W/m2 CLR
15:26 -12.2 °C -17.9 °C 34554.1 hPa West 26.9 km/h 26.9 km/h 49 % 0 mm 468.0 W/m2 CLR
15:33 -12.6 °C -18 °C 34554.1 hPa NNW 32.8 km/h 32.8 km/h 50 % 0 mm 411.0 W/m2 CLR
15:38 -12.6 °C -18 °C 34554.1 hPa WNW 23.8 km/h 23.8 km/h 50 % 0 mm 248.0 W/m2 CLR
15:43 -12.6 °C -17.7 °C 34554.1 hPa NW 31.1 km/h 31.1 km/h 52 % 0 mm 244.0 W/m2 CLR
15:48 -12.6 °C -17.9 °C 34554.1 hPa NNW 31.1 km/h 31.1 km/h 51 % 0 mm 403.0 W/m2 CLR
15:53 -12.2 °C -17.6 °C 34554.1 hPa North 38.8 km/h 38.8 km/h 51 % 0 mm 360.0 W/m2 CLR
15:58 -12.6 °C -17.9 °C 34554.1 hPa NW 26.9 km/h 26.9 km/h 51 % 0 mm 221.0 W/m2 CLR
16:03 -12.6 °C -17.9 °C 34554.1 hPa NNW 41.7 km/h 41.7 km/h 51 % 0 mm 237.0 W/m2 CLR
16:08 -12.6 °C -17.7 °C 34554.1 hPa North 32.8 km/h 32.8 km/h 52 % 0 mm 257.0 W/m2 CLR
16:13 -12.6 °C -17.7 °C 34544 hPa NNW 36.2 km/h 36.2 km/h 52 % 0 mm 202.0 W/m2 CLR
16:18 -12.6 °C -17.9 °C 34544 hPa NNW 41.7 km/h 41.7 km/h 51 % 0 mm 188.0 W/m2 CLR
16:23 -12.6 °C -17.7 °C 34544 hPa NNW 38.8 km/h 38.8 km/h 52 % 0 mm 174.0 W/m2 CLR
16:28 -12.8 °C -17.9 °C 34544 hPa NNW 44.7 km/h 44.7 km/h 53 % 0 mm 165.0 W/m2 CLR
16:33 -12.8 °C -18.2 °C 34544 hPa NW 36.2 km/h 36.2 km/h 51 % 0 mm 155.0 W/m2 CLR
16:38 -12.8 °C -17.9 °C 34544 hPa North 36.2 km/h 36.2 km/h 53 % 0 mm 148.0 W/m2 CLR
16:43 -12.8 °C -17.7 °C 34544 hPa North 29.8 km/h 29.8 km/h 54 % 0 mm 146.0 W/m2 CLR
16:48 -12.8 °C -17.9 °C 34544 hPa NNW 38.8 km/h 38.8 km/h 53 % 0 mm 135.0 W/m2 CLR
16:53 -12.8 °C -17.7 °C 34544 hPa North 26.9 km/h 26.9 km/h 54 % 0 mm 128.0 W/m2 CLR
16:58 -12.8 °C -17.6 °C 34544 hPa North 29.8 km/h 29.8 km/h 55 % 0 mm 123.0 W/m2 CLR
17:03 -13.2 °C -18 °C 34544 hPa North 50.7 km/h 50.7 km/h 54 % 0 mm 116.0 W/m2 CLR
17:08 -13.2 °C -17.9 °C 34544 hPa NNW 32.8 km/h 32.8 km/h 55 % 0 mm 104.0 W/m2 CLR
17:13 -13.2 °C -17.9 °C 34554.1 hPa NNW 38.8 km/h 38.8 km/h 55 % 0 mm 97.0 W/m2 CLR
17:18 -13.2 °C -17.9 °C 34554.1 hPa NNW 26.9 km/h 26.9 km/h 55 % 0 mm 91.0 W/m2 CLR
17:23 -13.2 °C -17.7 °C 34554.1 hPa North 25.9 km/h 25.9 km/h 56 % 0 mm 95.0 W/m2 CLR
17:28 -13.2 °C -17.7 °C 34554.1 hPa NW 26.9 km/h 26.9 km/h 56 % 0 mm 83.0 W/m2 FEW
17:33 -13.2 °C -17.7 °C 34544 hPa North 38.8 km/h 38.8 km/h 56 % 0 mm 70.0 W/m2 FEW
17:38 -13.2 °C -17.7 °C 34554.1 hPa NW 32.8 km/h 32.8 km/h 56 % 0 mm 58.0 W/m2 SCT
17:43 -13.2 °C -17.6 °C 34554.1 hPa NNW 35.7 km/h 35.7 km/h 57 % 0 mm 44.0 W/m2 BKN
17:48 -13.2 °C -17.6 °C 34554.1 hPa North 29.8 km/h 29.8 km/h 57 % 0 mm 30.0 W/m2 BKN
17:53 -13.4 °C -17.6 °C 34567.7 hPa North 29.8 km/h 29.8 km/h 59 % 0 mm 19.0 W/m2 BKN
17:58 -13.4 °C -17.5 °C 34567.7 hPa NNW 32.8 km/h 32.8 km/h 60 % 0 mm 14.0 W/m2 BKN
18:03 -13.4 °C -17.1 °C 34567.7 hPa North 41.4 km/h 41.4 km/h 63 % 0 mm 14.0 W/m2 BKN
18:08 -13.4 °C -17 °C 34567.7 hPa NNW 50.7 km/h 50.7 km/h 64 % 0 mm 11.0 W/m2 BKN
18:13 -13.8 °C -17.1 °C 34567.7 hPa NW 38.8 km/h 38.8 km/h 66 % 0 mm 9.0 W/m2 BKN
18:18 -13.8 °C -16.8 °C 34567.7 hPa NW 29.8 km/h 29.8 km/h 68 % 0 mm 5.0 W/m2 OVC
18:23 -14.1 °C -16.9 °C 34567.7 hPa WNW 23.8 km/h 23.8 km/h 70 % 0 mm 0.0 W/m2 OVC
18:28 -14.1 °C -16.8 °C 34567.7 hPa WNW 29.8 km/h 29.8 km/h 71 % 0 mm 0.0 W/m2 OVC
18:33 -14.1 °C -16.6 °C 34567.7 hPa NW 29.8 km/h 29.8 km/h 73 % 0 mm 0.0 W/m2 OVC
18:38 -14.4 °C -16.7 °C 34567.7 hPa NW 23.8 km/h 23.8 km/h 75 % 0 mm 0.0 W/m2 CLR
18:43 -14.4 °C -16.6 °C 34567.7 hPa WNW 23.8 km/h 23.8 km/h 76 % 0 mm 0.0 W/m2 CLR
18:48 -14.4 °C -16.6 °C 34567.7 hPa WNW 23.8 km/h 23.8 km/h 76 % 0 mm 0.0 W/m2 CLR
18:53 -14.4 °C -16.4 °C 34577.8 hPa WNW 23.8 km/h 23.8 km/h 77 % 0 mm 0.0 W/m2 CLR
18:58 -14.4 °C -16.6 °C 34577.8 hPa WNW 17.9 km/h 17.9 km/h 76 % 0 mm 0.0 W/m2 CLR
19:03 -14.4 °C -16.6 °C 34577.8 hPa West 9 km/h 9 km/h 76 % 0 mm 0.0 W/m2 CLR
19:08 -14.4 °C -16.4 °C 34577.8 hPa West 11.9 km/h 11.9 km/h 77 % 0 mm 0.0 W/m2 CLR
19:13 -14.7 °C -16.8 °C 34577.8 hPa West 11.9 km/h 11.9 km/h 77 % 0 mm 0.0 W/m2 CLR
19:18 -14.7 °C -16.7 °C 34577.8 hPa Calm     78 % 0 mm 0.0 W/m2 CLR
19:23 -14.7 °C -16.7 °C 34577.8 hPa Calm     78 % 0 mm 0.0 W/m2 CLR
19:28 -14.7 °C -16.7 °C 34577.8 hPa Calm     78 % 0 mm 0.0 W/m2 CLR
19:33 -14.7 °C -16.8 °C 34577.8 hPa NW 2.6 km/h 2.9 km/h 77 % 0 mm 0.0 W/m2 CLR
19:38 -14.7 °C -16.8 °C 34577.8 hPa NNW 25.9 km/h 25.9 km/h 77 % 0 mm 0.0 W/m2 CLR
19:43 -14.7 °C -16.8 °C 34577.8 hPa NW 26.9 km/h 26.9 km/h 76 % 0 mm 0.0 W/m2 CLR
19:49 -14.4 °C -16.6 °C 34591.4 hPa NW 29.8 km/h 29.8 km/h 76 % 0 mm 0.0 W/m2 CLR
19:54 -14.4 °C -16.6 °C 34591.4 hPa NNW 32.8 km/h 32.8 km/h 76 % 0 mm 0.0 W/m2 CLR
19:59 -14.4 °C -16.4 °C 34591.4 hPa North 44.7 km/h 44.7 km/h 77 % 0 mm 0.0 W/m2 CLR
20:04 -14.4 °C -16.3 °C 34591.4 hPa NNW 47.6 km/h 47.6 km/h 78 % 0 mm 0.0 W/m2 CLR
20:09 -14.4 °C -16.3 °C 34591.4 hPa NNW 50.7 km/h 50.7 km/h 79 % 0 mm 0.0 W/m2 CLR
20:14 -14.4 °C -16.3 °C 34591.4 hPa NW 44.7 km/h 44.7 km/h 79 % 0 mm 0.0 W/m2 CLR
20:19 -14.4 °C -16.3 °C 34591.4 hPa NW 50.7 km/h 50.7 km/h 79 % 0 mm 0.0 W/m2 CLR
20:24 -14.1 °C -15.9 °C 34591.4 hPa NW 41.7 km/h 41.7 km/h 80 % 0 mm 0.0 W/m2 CLR
20:29 -14.1 °C -15.9 °C 34591.4 hPa NW 44.7 km/h 44.7 km/h 80 % 0 mm 0.0 W/m2 CLR
20:34 -14.1 °C -15.9 °C 34591.4 hPa North 38.8 km/h 38.8 km/h 80 % 0 mm 0.0 W/m2 CLR
20:39 -14.1 °C -15.9 °C 34601.5 hPa NNW 53.6 km/h 53.6 km/h 80 % 0 mm 0.0 W/m2 CLR
20:44 -14.1 °C -15.9 °C 34601.5 hPa NW 50.7 km/h 50.7 km/h 80 % 0 mm 0.0 W/m2 CLR
20:49 -14.1 °C -15.9 °C 34601.5 hPa North 51.8 km/h 51.8 km/h 80 % 0 mm 0.0 W/m2 CLR
20:54 -14.1 °C -15.8 °C 34601.5 hPa NW 51.8 km/h 51.8 km/h 81 % 0 mm 0.0 W/m2 CLR
20:59 -14.1 °C -15.8 °C 34601.5 hPa NNW 59.5 km/h 59.5 km/h 81 % 0 mm 0.0 W/m2 CLR
21:04 -14.1 °C -15.8 °C 34611.7 hPa NW 59.5 km/h 59.5 km/h 81 % 0 mm 0.0 W/m2 CLR
21:09 -14.1 °C -15.8 °C 34611.7 hPa North 54.4 km/h 54.4 km/h 81 % 0 mm 0.0 W/m2 CLR
21:14 -14.1 °C -15.7 °C 34611.7 hPa North 47.6 km/h 47.6 km/h 82 % 0 mm 0.0 W/m2 CLR
21:19 -14.1 °C -15.7 °C 34611.7 hPa NW 80.5 km/h 80.5 km/h 82 % 0 mm 0.0 W/m2 CLR
21:24 -14.1 °C -15.8 °C 34611.7 hPa North 53.6 km/h 53.6 km/h 81 % 0 mm 0.0 W/m2 CLR
21:29 -14.1 °C -15.8 °C 34611.7 hPa NNW 38.8 km/h 38.8 km/h 81 % 0 mm 0.0 W/m2 CLR
21:34 -14.1 °C -15.8 °C 34611.7 hPa NNW 65.5 km/h 65.5 km/h 81 % 0 mm 0.0 W/m2 CLR
21:39 -14.1 °C -15.8 °C 34625.2 hPa NNW 71.5 km/h 71.5 km/h 81 % 0 mm 0.0 W/m2 CLR
21:44 -14.4 °C -16.2 °C 34625.2 hPa North 77.4 km/h 77.4 km/h 80 % 0 mm 0.0 W/m2 CLR
21:49 -14.4 °C -16.2 °C 34611.7 hPa North 50.7 km/h 50.7 km/h 80 % 0 mm 0.0 W/m2 CLR
21:54 -14.4 °C -16.2 °C 34611.7 hPa NNW 50.7 km/h 50.7 km/h 80 % 0 mm 0.0 W/m2 CLR
21:59 -14.4 °C -16.2 °C 34611.7 hPa NW 56.6 km/h 56.6 km/h 80 % 0 mm 0.0 W/m2 CLR
22:04 -14.4 °C -16.3 °C 34611.7 hPa NW 59.5 km/h 59.5 km/h 79 % 0 mm 0.0 W/m2 CLR
22:09 -14.4 °C -16.3 °C 34611.7 hPa NW 50.7 km/h 50.7 km/h 78 % 0 mm 0.0 W/m2 CLR
22:14 -14.7 °C -16.7 °C 34611.7 hPa NNE 36.2 km/h 36.2 km/h 78 % 0 mm 0.0 W/m2 CLR
22:19 -14.4 °C -16.3 °C 34611.7 hPa NNW 50.7 km/h 50.7 km/h 78 % 0 mm 0.0 W/m2 CLR
22:24 -14.4 °C -16.4 °C 34611.7 hPa NW 62.6 km/h 62.6 km/h 77 % 0 mm 0.0 W/m2 CLR
22:29 -14.4 °C -16.6 °C 34611.7 hPa NW 54.4 km/h 54.4 km/h 76 % 0 mm 0.0 W/m2 CLR
22:34 -14.7 °C -16.8 °C 34611.7 hPa NNW 62.6 km/h 62.6 km/h 76 % 0 mm 0.0 W/m2 CLR
22:39 -14.7 °C -16.8 °C 34611.7 hPa NNW 65.5 km/h 65.5 km/h 76 % 0 mm 0.0 W/m2 CLR
22:44 -14.7 °C -16.8 °C 34611.7 hPa NW 65.5 km/h 65.5 km/h 76 % 0 mm 0.0 W/m2 CLR
22:49 -14.7 °C -16.8 °C 34611.7 hPa NNW 64.7 km/h 64.7 km/h 77 % 0 mm 0.0 W/m2 CLR
22:54 -14.7 °C -16.8 °C 34611.7 hPa NNW 47.6 km/h 47.6 km/h 77 % 0 mm 0.0 W/m2 CLR
22:59 -15 °C -17.1 °C 34611.7 hPa NNW 68.6 km/h 68.6 km/h 77 % 0 mm 0.0 W/m2 CLR
23:04 -14.7 °C -16.8 °C 34611.7 hPa NNW 74.5 km/h 74.5 km/h 77 % 0 mm 0.0 W/m2 CLR
23:09 -14.7 °C -16.8 °C 34611.7 hPa NW 86.4 km/h 86.4 km/h 76 % 0 mm 0.0 W/m2 CLR
23:14 -14.7 °C -16.8 °C 34601.5 hPa NNW 74.5 km/h 74.5 km/h 76 % 0 mm 0.0 W/m2 CLR
23:19 -14.7 °C -16.8 °C 34601.5 hPa NNW 65.5 km/h 65.5 km/h 76 % 0 mm 0.0 W/m2 CLR
23:24 -15 °C -17.1 °C 34611.7 hPa NNW 59.5 km/h 59.5 km/h 77 % 0 mm 0.0 W/m2 CLR
23:29 -15 °C -17.1 °C 34611.7 hPa NNW 68.6 km/h 68.6 km/h 77 % 0 mm 0.0 W/m2 CLR
23:34 -15 °C -16.9 °C 34625.2 hPa NW 68.6 km/h 68.6 km/h 78 % 0 mm 0.0 W/m2 CLR
23:39 -15 °C -16.9 °C 34625.2 hPa NNW 83.4 km/h 83.4 km/h 78 % 0 mm 0.0 W/m2 CLR
23:44 -15 °C -16.9 °C 34611.7 hPa NW 68.6 km/h 68.6 km/h 78 % 0 mm 0.0 W/m2 CLR
23:49 -15 °C -16.8 °C 34611.7 hPa NNW 68.6 km/h 68.6 km/h 79 % 0 mm 0.0 W/m2 CLR
23:54 -15 °C -16.8 °C 34601.5 hPa NNW 74.5 km/h 74.5 km/h 79 % 0 mm 0.0 W/m2 CLR
23:59 -15 °C -16.8 °C 34611.7 hPa NNW 56.6 km/h 56.6 km/h 79 % 0 mm 0.0 W/m2 CLR
Lo Temps de Massalio
Compliments of Weather Underground - 1.25 mb